John Day, Oregon
Current Conditions -  °F | °C
As of 9:35 PM on Saturday 22 Nov 2014 (Local Time) from KGCD Reporting Station
Scattered Clouds Scattered Clouds  
Wind Chill: 32°   Ceiling: Unl
Heat Index: 36°   Visibility: 10mi
Dew Point: 31°   Wind: 5mph
Humidity: 82%   Direction: 250°WSW
Pressure: 30.12"   Gusts: NA
Location:  44.42°N, 118.95°W
Report Text: KGCD 230535Z AUTO 25004KT 10SM SCT037 02/M01 A3012 RMK AO2 T00201007
Loading
Personal Weather Stations






























Interactive Weather Map New forecast layout! Learn more

10-Day Weather Forecast

Advertisements
Track Severe Weather on mobile